Airfield :
LOGIN :

Register | Disclaimer

   EN    FR    IT 

 










Legend :    VFR   Marginal VFR   IFR   Intensive IFR   Very Intensive IFR
Visi :
Ceiling :
>= 8 km
>= 3000ft
5 to 8 km
1000 to 3000 ft
1500m to 5 km
500 to 1000 ft
800 to 1500m
200 to 500 ft
< 800m
< 200 ft
Symbols :   Thunderstorms  Fog  Heavy snow  Heavy precipitations  Wind > 20 kt
SIGMETs :     Misc.  Thunderstorms  Icing  Turbulence  Mountain Waves  Volcanic Ashes






- Airport Elevation : 1020 ft
- IATA code : ILZ


LZZI - Žilina

CURRENT METAR :
  • 080600Z 08005KT CAVOK 03/M04 Q1032

EXPIRED METARs :
  • 080530Z 11005KT CAVOK 01/M04 Q1032
  • 080500Z 10005KT CAVOK M00/M05 Q1032
  • 080430Z 11005KT CAVOK M01/M05 Q1032
  • 080400Z 11005KT CAVOK M00/M05 Q1032
  • 080330Z 08002KT CAVOK M01/M06 Q1032

TAF TAF LZZI
Valid from the 08 at 06:00 until the 08 at 15:00 UTC


080500Z 0806/0815 10005KT CAVOK
BECMG 0809/0811 33005KT



MET'MAP, your aeronautical weather chart ! - Copyright ORBIFLY December 2007 - Disclaimer

ORBIFLY MET'MAP TEAM :

Programming & Development : Alexandra Zaïnal
Concept & original design : Baudouin d'Aumeries
Assistance for programming : Marc-Olivier Méhu
Technical & hardware support : Manuel Goepfert

Contact : metmap@orbifly.com




SOURCES & CREDITS :

   NOAA